Barkley Regional Airport
KPAH : now visible

Airfield :











YOU CAN JOIN US ON...

 
LOGIN :

Register | Disclaimer

   EN    FR    IT 

 









Legend :    VFR   Marginal VFR   IFR   Intensive IFR   Very Intensive IFR
Visi :
Ceiling :
>= 8 km
>= 3000ft
5 to 8 km
1000 to 3000 ft
1500m to 5 km
500 to 1000 ft
800 to 1500m
200 to 500 ft
< 800m
< 200 ft
Symbols :   Thunderstorms  Fog  Heavy snow  Heavy precipitations  Wind > 20 kt






- Airport Elevation : 410 ft
- IATA code : PAH


KPAH - Barkley Regional

CURRENT METAR :
  • 260013Z 00000KT 10SM FEW095 22/20 A2991 RMK AO2 TSE2356 T02220200

EXPIRED METARs :
  • 252353Z 24010KT 10SM TS FEW028 SCT048 SCT060 23/18 A2990 RMK AO2 PK WND 08030/2255 WSHFT 2327 LTG DSNT N RAE13B29E51 TSE17B41 SLP122 TS OVHD MOV N P0038 60043 T02280178 10328 20217 50004
  • 252346Z 24010KT 3SM -TSRA FEW026 SCT050 BKN060 22/19 A2991 RMK AO2 PK WND 08030/2255 WSHFT 2327 LTG DSNT N RAE13B29 TSE17B41 TS OVHD MOV N P0038 T02220189
  • 252317Z COR 24010KT 10SM VCTS FEW042 SCT055 BKN070 24/19 A2989 RMK AO2 PK WND 08030/2255 WSHFT 2240 LTG DSNT N AND SE AND NW RAE13 TSE17 P0014 T02390189
  • 252303Z VRB05G30KT 1SM +TSRA FEW006 BKN060 OVC085 26/18 A2991 RMK AO2 PK WND 08030/2255 WSHFT 2240 VIS 1/2V5 LTG DSNT NW TS OVHD MOV N P0004 T02560183
  • 252255Z 09022G30KT 2SM -TSRA BKN055 BKN075 24/18 A2992 RMK AO2 PK WND 08030/2255 WSHFT 2240 LTG DSNT W AND NW P0001 T02390183
  • 252240Z 17015G31KT 8SM TS SCT055 29/19 A2990 RMK AO2 PK WND 16031/2240 LTG DSNT S-NW TSB40 T02940189
  • 252227Z 15004KT 10SM CLR 30/18 A2989 RMK AO2 LTG DSNT S T03000183
  • 252212Z 17005KT 10SM VCTS FEW060 30/18 A2989 RMK AO2 T03000183
  • 252153Z 15012G15KT 10SM BKN055 BKN075 32/18 A2988 RMK AO2 LTG DSNT S AND SW SLP114 T03170183

TAF KPAH
Valid from the 26 at 00:00 until the 27 at 00:00 UTC


252320Z 2600/2624 14007KT P6SM VCTS FEW050CB BKN100
FM260100 12006KT P6SM FEW050 SCT100
FM260600 14008KT P6SM SCT250
FM261300 16009KT P6SM SCT150
FM261800 15010KT P6SM BKN060
KZME FIR / North America



MET'MAP, your aeronautical weather chart ! - Copyright ORBIFLY December 2007 - Disclaimer

ORBIFLY MET'MAP TEAM :

Programming & Development : Alexandra Zaïnal
Concept & original design : Baudouin d'Aumeries
Assistance for programming : Marc-Olivier Méhu
Technical & hardware support : Manuel Goepfert

Contact : metmap@orbifly.com




SOURCES & CREDITS :

   NOAA       Earth
Advisory